• Join FlightAware (Why Join?)
  • Login
  • US Flag 
11:55PM EST


 

Airport Tracker/Info


-or-


 

Live Flight TrackerFlight Track Log ✈ AAL1862 ✈ 13-May-2013 ✈ KDFW - KSTL

Flight Track Log - Related Links

Times and Time Zones

All times are in EDT time to prevent confusion due to time zone crossing. See the AAL1862 flight status page for this flight to view local times or setup timezone preferences in your user account.

Time Position Orientation Groundspeed Altitude Reporting Facility
EDT Latitude Longitude Course Direction KTS MPH feet Rate Location/Type
07:48AM 32.8833 -97.0333 357° North 173 199 1,500  Level Dallas / Fort Worth TRACON
07:49AM 32.8167 -97.0167 168° South 242 278 3,800 2,640 Climbing Dallas / Fort Worth TRACON
07:50AM 32.7593 -96.8537 77° East  Level FlightAware Approximate
07:50AM 32.7667 -96.9667 140° Southeast 279 321 6,800  Level Dallas / Fort Worth TRACON
07:51AM 32.8527 -96.8000 North  Level FlightAware Approximate
07:51AM 32.7667 -96.8667 90° East 282 325 9,600  Level Dallas / Fort Worth TRACON
07:52AM 32.9720 -96.8000 North  Level FlightAware Approximate
07:53AM 33.0911 -96.8017 357° North  Level FlightAware Approximate
07:53AM 32.8550 -96.8125 27° Northeast 273 314 12,000  Level Fort Worth Center
07:54AM 33.2102 -96.8102 357° North  Level FlightAware Approximate
07:54AM 32.9633 -96.8117 360° North 312 359 14,300  Level Fort Worth Center
07:55AM 33.0617 -96.8136 359° North 363 418 16,400 2,220 Climbing Fort Worth Center
07:56AM 33.1828 -96.8178 358° North 394 453 18,800 2,400 Climbing Fort Worth Center
07:57AM 33.2869 -96.8219 358° North 407 468 21,300 2,400 Climbing Fort Worth Center
07:58AM 33.4103 -96.8089 North 407 468 23,600 1,620 Climbing Fort Worth Center
07:59AM 33.4975 -96.7333 36° Northeast 396 456 24,600 1,380 Climbing Fort Worth Center
08:00AM 33.6053 -96.6378 36° Northeast 427 491 26,400 1,800 Climbing Fort Worth Center
08:01AM 33.7072 -96.5519 35° Northeast 432 497 28,300 1,260 Climbing Fort Worth Center
08:02AM 33.7964 -96.4811 33° Northeast 432 497 29,000 300 Climbing Fort Worth Center
08:03AM 33.9019 -96.3875 36° Northeast 426 490 29,000  Level Fort Worth Center
08:04AM 34.0017 -96.3061 34° Northeast 421 484 29,000  Level Fort Worth Center
08:05AM 34.0989 -96.2222 36° Northeast 421 484 29,000  Level Fort Worth Center
08:06AM 34.1981 -96.1381 35° Northeast 421 484 29,000  Level Fort Worth Center
08:07AM 34.2994 -96.0533 35° Northeast 426 490 29,000  Level Fort Worth Center
08:08AM 34.3989 -95.9689 35° Northeast 426 490 29,000  Level Fort Worth Center
08:09AM 34.4978 -95.8839 35° Northeast 426 490 29,000  Level Fort Worth Center
08:10AM 34.5992 -95.7964 35° Northeast 426 490 29,000  Level Fort Worth Center
08:11AM 34.6981 -95.7111 35° Northeast 426 490 29,000  Level Fort Worth Center
08:12AM 34.7992 -95.6258 35° Northeast 432 497 29,000  Level Fort Worth Center
08:13AM 34.9022 -95.5450 33° Northeast 432 497 29,000  Level Fort Worth Center
08:14AM 35.0011 -95.4594 35° Northeast 437 503 29,000  Level Fort Worth Center
08:15AM 35.0997 -95.3683 37° Northeast 431 496 29,000  Level Fort Worth Center
08:16AM 35.1964 -95.2872 34° Northeast 426 490 29,000  Level Fort Worth Center
08:17AM 35.3100 -95.1914 35° Northeast 428 493 29,000  Level Memphis Center
08:18AM 35.4094 -95.1003 37° Northeast 428 493 29,000  Level Memphis Center
08:19AM 35.5064 -95.0167 35° Northeast 428 493 29,000  Level Memphis Center
08:20AM 35.6036 -94.9275 37° Northeast 428 493 29,000  Level Memphis Center
08:21AM 35.7006 -94.8408 36° Northeast 433 498 29,000  Level Memphis Center
08:22AM 35.7997 -94.7542 35° Northeast 433 498 29,000  Level Memphis Center
08:23AM 35.8964 -94.6669 36° Northeast 433 498 29,000  Level Memphis Center
08:24AM 35.9956 -94.5772 36° Northeast 433 498 29,000  Level Memphis Center
08:25AM 36.0922 -94.4897 36° Northeast 433 498 29,000  Level Memphis Center
08:26AM 36.1889 -94.4022 36° Northeast 433 498 29,000  Level Memphis Center
08:28AM 36.3658 -94.2444 36° Northeast 430 495 29,000  Level Kansas City Center
08:29AM 36.4631 -94.1564 36° Northeast 432 497 29,000  Level Kansas City Center
08:30AM 36.5589 -94.0678 37° Northeast 431 496 29,000  Level Kansas City Center
08:31AM 36.6747 -93.9631 36° Northeast 429 494 29,000  Level Kansas City Center
08:32AM 36.7711 -93.8758 36° Northeast 427 491 29,000  Level Kansas City Center
08:33AM 36.8672 -93.7872 36° Northeast 429 494 29,000  Level Kansas City Center
08:34AM 36.9656 -93.6939 37° Northeast 424 488 29,000  Level Kansas City Center
08:35AM 37.0611 -93.6053 36° Northeast 425 489 29,000  Level Kansas City Center
08:36AM 37.1578 -93.5183 36° Northeast 425 489 29,000  Level Kansas City Center
08:37AM 37.2528 -93.4281 37° Northeast 426 490 29,000  Level Kansas City Center
08:38AM 37.3481 -93.3428 35° Northeast 420 483 29,000  Level Kansas City Center
08:39AM 37.4311 -93.2478 42° Northeast 406 467 29,000  Level Kansas City Center
08:40AM 37.5139 -93.1492 43° Northeast 406 467 29,000  Level Kansas City Center
08:41AM 37.5983 -93.0522 42° Northeast 408 470 29,000  Level Kansas City Center
08:42AM 37.6781 -92.9478 46° Northeast 410 472 29,000  Level Kansas City Center
08:43AM 37.7569 -92.8039 55° Northeast 413 475 29,000  Level Kansas City Center
08:44AM 37.8217 -92.6958 53° Northeast 413 475 29,000  Level Kansas City Center
08:45AM 37.8906 -92.5811 53° Northeast 412 474 29,000  Level Kansas City Center
08:46AM 37.9586 -92.4669 53° Northeast 410 472 29,000  Level Kansas City Center
08:47AM 38.0278 -92.3508 53° Northeast 411 473 29,000  Level Kansas City Center
08:48AM 38.0964 -92.2356 53° Northeast 410 472 29,000  Level Kansas City Center
08:49AM 38.1772 -92.0972 53° Northeast 407 468 29,000  Level Kansas City Center
08:50AM 38.2439 -91.9831 53° Northeast 407 468 29,000 -600 Level Kansas City Center
08:51AM 38.3117 -91.8678 53° Northeast 406 467 27,800 -1,920 Descending Kansas City Center
08:52AM 38.3783 -91.7528 53° Northeast 404 465 25,100 -2,520 Descending Kansas City Center
08:53AM 38.4431 -91.6417 53° Northeast 398 458 22,700 -2,280 Descending Kansas City Center
08:54AM 38.5069 -91.5311 54° Northeast 391 450 20,500 -2,100 Descending Kansas City Center
08:55AM 38.5697 -91.4225 54° Northeast 385 443 18,500 -1,800 Descending Kansas City Center
08:57AM 38.6306 -91.3167 54° Northeast 379 436 16,800 -1,740 Descending Kansas City Center
08:58AM 38.6939 -91.1847 58° Northeast 379 436 15,000 -1,020 Descending Kansas City Center
08:59AM 38.6936 -91.0481 90° East 385 443 14,800 -840 Descending Kansas City Center
09:00AM 38.6961 -90.9119 89° East 385 443 13,400 -1,740 Descending Kansas City Center
09:01AM 38.7025 -90.7825 86° East 373 429 11,300 -1,500 Descending Kansas City Center
09:02AM 38.7083 -90.6600 86° East 355 409 10,300 -1,260 Descending Kansas City Center
09:03AM 38.7133 -90.5506 87° East 317 365 8,800 -1,200 Descending Kansas City Center
09:04AM 38.6728 -90.4369 115° Southeast 307 353 7,900 -1,020 Descending Kansas City Center
09:05AM 38.6344 -90.3594 122° Southeast 281 323 6,700 -1,260 Descending Kansas City Center
09:06AM 38.5928 -90.2739 122° Southeast 258 297 5,400 -840 Descending Kansas City Center
09:07AM 38.5561 -90.2036 124° Southeast 244 281 5,000 -600 Descending Kansas City Center
09:08AM 38.5686 -90.1583 71° East 202 232 4,200 -720 Descending Kansas City Center
09:09AM 38.6203 -90.1628 356° North 178 205 3,600 -300 Descending Kansas City Center
09:10AM 38.6603 -90.1889 333° Northwest 168 193 3,600  Level Kansas City Center